sensor_id;sensor_type;location;lat;lon;timestamp;pressure;altitude;pressure_sealevel;temperature;humidity
61908;BME280;47864;52.526;19.672;2023-02-19T00:01:09;100397.06;;;2.16;100.00
61908;BME280;47864;52.526;19.672;2023-02-19T00:03:11;100394.66;;;2.13;100.00
61908;BME280;47864;52.526;19.672;2023-02-19T00:05:12;100375.78;;;1.95;100.00
61908;BME280;47864;52.526;19.672;2023-02-19T00:07:14;100368.78;;;1.96;100.00
61908;BME280;47864;52.526;19.672;2023-02-19T00:09:17;100394.34;;;2.05;100.00
61908;BME280;47864;52.526;19.672;2023-02-19T00:11:21;100351.59;;;1.79;100.00
61908;BME280;47864;52.526;19.672;2023-02-19T00:13:22;100391.16;;;2.00;100.00
61908;BME280;47864;52.526;19.672;2023-02-19T00:15:24;100396.63;;;1.97;100.00
61908;BME280;47864;52.526;19.672;2023-02-19T00:17:25;100409.78;;;1.95;100.00
61908;BME280;47864;52.526;19.672;2023-02-19T00:19:27;100399.22;;;1.97;100.00
61908;BME280;47864;52.526;19.672;2023-02-19T00:21:29;100402.69;;;1.97;100.00
61908;BME280;47864;52.526;19.672;2023-02-19T00:23:31;100388.81;;;1.82;100.00
61908;BME280;47864;52.526;19.672;2023-02-19T00:25:35;100407.28;;;1.94;100.00
61908;BME280;47864;52.526;19.672;2023-02-19T00:27:37;100382.75;;;1.82;100.00
61908;BME280;47864;52.526;19.672;2023-02-19T00:29:38;100398.41;;;1.96;100.00
61908;BME280;47864;52.526;19.672;2023-02-19T00:31:40;100393.88;;;1.98;100.00
61908;BME280;47864;52.526;19.672;2023-02-19T00:33:41;100402.34;;;1.89;100.00
61908;BME280;47864;52.526;19.672;2023-02-19T00:35:43;100398.91;;;1.88;100.00
61908;BME280;47864;52.526;19.672;2023-02-19T00:37:44;100394.59;;;1.87;100.00
61908;BME280;47864;52.526;19.672;2023-02-19T00:39:46;100397.31;;;1.86;100.00
61908;BME280;47864;52.526;19.672;2023-02-19T00:41:48;100396.78;;;1.81;100.00
61908;BME280;47864;52.526;19.672;2023-02-19T00:43:51;100393.34;;;1.80;100.00
61908;BME280;47864;52.526;19.672;2023-02-19T00:45:52;100390.72;;;1.80;100.00
61908;BME280;47864;52.526;19.672;2023-02-19T00:47:54;100402.41;;;1.75;100.00
61908;BME280;47864;52.526;19.672;2023-02-19T00:49:55;100393.72;;;1.74;100.00
61908;BME280;47864;52.526;19.672;2023-02-19T00:51:57;100387.97;;;1.82;100.00
61908;BME280;47864;52.526;19.672;2023-02-19T00:53:58;100388.28;;;1.77;100.00
61908;BME280;47864;52.526;19.672;2023-02-19T00:56:00;100392.66;;;1.64;100.00
61908;BME280;47864;52.526;19.672;2023-02-19T00:58:01;100389.41;;;1.73;100.00
61908;BME280;47864;52.526;19.672;2023-02-19T01:00:04;100388.03;;;1.55;100.00
61908;BME280;47864;52.526;19.672;2023-02-19T01:02:05;100378.16;;;1.46;100.00
61908;BME280;47864;52.526;19.672;2023-02-19T01:04:07;100389.78;;;1.55;100.00
61908;BME280;47864;52.526;19.672;2023-02-19T01:06:09;100390.22;;;1.61;100.00
61908;BME280;47864;52.526;19.672;2023-02-19T01:08:11;100389.81;;;1.67;100.00
61908;BME280;47864;52.526;19.672;2023-02-19T01:10:12;100383.91;;;1.51;100.00
61908;BME280;47864;52.526;19.672;2023-02-19T01:12:14;100390.66;;;1.68;100.00
61908;BME280;47864;52.526;19.672;2023-02-19T01:14:15;100392.19;;;1.58;100.00
61908;BME280;47864;52.526;19.672;2023-02-19T01:16:19;100386.09;;;1.71;100.00
61908;BME280;47864;52.526;19.672;2023-02-19T01:18:21;100392.19;;;1.58;100.00
61908;BME280;47864;52.526;19.672;2023-02-19T01:20:23;100382.91;;;1.66;100.00
61908;BME280;47864;52.526;19.672;2023-02-19T01:22:24;100386.63;;;1.49;100.00
61908;BME280;47864;52.526;19.672;2023-02-19T01:24:26;100385.53;;;1.66;100.00
61908;BME280;47864;52.526;19.672;2023-02-19T01:26:29;100386.38;;;1.67;100.00
61908;BME280;47864;52.526;19.672;2023-02-19T01:28:31;100391.31;;;1.71;100.00
61908;BME280;47864;52.526;19.672;2023-02-19T01:30:34;100381.44;;;1.62;100.00
61908;BME280;47864;52.526;19.672;2023-02-19T01:32:35;100372.72;;;1.49;100.00
61908;BME280;47864;52.526;19.672;2023-02-19T01:34:37;100383.06;;;1.50;100.00
61908;BME280;47864;52.526;19.672;2023-02-19T01:36:39;100382.22;;;1.50;100.00
61908;BME280;47864;52.526;19.672;2023-02-19T01:38:40;100382.28;;;1.63;100.00
61908;BME280;47864;52.526;19.672;2023-02-19T01:40:42;100373.88;;;1.58;100.00
61908;BME280;47864;52.526;19.672;2023-02-19T01:42:44;100348.25;;;1.50;100.00
61908;BME280;47864;52.526;19.672;2023-02-19T01:46:46;100377.25;;;1.60;100.00
61908;BME280;47864;52.526;19.672;2023-02-19T01:48:48;100364.13;;;1.74;100.00
61908;BME280;47864;52.526;19.672;2023-02-19T01:50:53;100357.75;;;1.78;100.00
61908;BME280;47864;52.526;19.672;2023-02-19T01:52:58;100363.69;;;1.67;100.00
61908;BME280;47864;52.526;19.672;2023-02-19T01:55:04;100353.09;;;1.29;100.00
61908;BME280;47864;52.526;19.672;2023-02-19T01:57:12;100365.22;;;1.57;100.00
61908;BME280;47864;52.526;19.672;2023-02-19T01:59:17;100372.69;;;1.63;100.00
61908;BME280;47864;52.526;19.672;2023-02-19T02:01:18;100375.28;;;1.63;100.00
61908;BME280;47864;52.526;19.672;2023-02-19T02:03:20;100358.44;;;1.55;100.00
61908;BME280;47864;52.526;19.672;2023-02-19T02:05:47;100370.78;;;1.65;100.00
61908;BME280;47864;52.526;19.672;2023-02-19T02:07:50;100362.25;;;1.49;100.00
61908;BME280;47864;52.526;19.672;2023-02-19T02:09:52;100364.53;;;1.41;100.00
61908;BME280;47864;52.526;19.672;2023-02-19T02:11:54;100355.31;;;1.62;100.00
61908;BME280;47864;52.526;19.672;2023-02-19T02:13:56;100358.59;;;1.39;100.00
61908;BME280;47864;52.526;19.672;2023-02-19T02:16:24;100359.44;;;1.52;100.00
61908;BME280;47864;52.526;19.672;2023-02-19T02:18:39;100353.47;;;1.50;100.00
61908;BME280;47864;52.526;19.672;2023-02-19T02:21:16;100347.53;;;1.48;100.00
61908;BME280;47864;52.526;19.672;2023-02-19T02:23:38;100354.22;;;1.52;100.00
61908;BME280;47864;52.526;19.672;2023-02-19T02:27:53;100344.66;;;1.38;100.00
61908;BME280;47864;52.526;19.672;2023-02-19T02:32:31;100328.66;;;1.30;100.00
61908;BME280;47864;52.526;19.672;2023-02-19T02:34:46;100352.13;;;1.57;100.00
61908;BME280;47864;52.526;19.672;2023-02-19T02:36:53;100349.53;;;1.57;100.00
61908;BME280;47864;52.526;19.672;2023-02-19T02:38:56;100338.00;;;1.47;100.00
61908;BME280;47864;52.526;19.672;2023-02-19T02:40:58;100318.13;;;1.18;100.00
61908;BME280;47864;52.526;19.672;2023-02-19T02:43:00;100341.63;;;1.32;100.00
61908;BME280;47864;52.526;19.672;2023-02-19T02:47:18;100338.78;;;1.35;100.00
61908;BME280;47864;52.526;19.672;2023-02-19T02:49:21;100316.13;;;1.35;100.00
61908;BME280;47864;52.526;19.672;2023-02-19T02:51:40;100323.38;;;1.57;100.00
61908;BME280;47864;52.526;19.672;2023-02-19T02:54:30;100318.47;;;1.52;100.00
61908;BME280;47864;52.526;19.672;2023-02-19T02:56:13;100321.63;;;1.58;100.00
61908;BME280;47864;52.526;19.672;2023-02-19T02:58:15;100322.78;;;1.53;100.00
61908;BME280;47864;52.526;19.672;2023-02-19T03:00:18;100338.72;;;1.49;100.00
61908;BME280;47864;52.526;19.672;2023-02-19T03:02:23;100336.44;;;1.44;100.00
61908;BME280;47864;52.526;19.672;2023-02-19T03:07:09;100331.50;;;1.40;100.00
61908;BME280;47864;52.526;19.672;2023-02-19T03:09:19;100333.72;;;1.46;100.00
61908;BME280;47864;52.526;19.672;2023-02-19T03:11:23;100325.72;;;1.35;100.00
61908;BME280;47864;52.526;19.672;2023-02-19T03:13:32;100342.69;;;1.42;100.00
61908;BME280;47864;52.526;19.672;2023-02-19T03:15:40;100333.56;;;1.35;100.00
61908;BME280;47864;52.526;19.672;2023-02-19T03:17:48;100326.97;;;1.29;100.00
61908;BME280;47864;52.526;19.672;2023-02-19T03:19:54;100329.19;;;1.35;100.00
61908;BME280;47864;52.526;19.672;2023-02-19T03:22:01;100333.88;;;1.30;100.00
61908;BME280;47864;52.526;19.672;2023-02-19T03:24:07;100327.75;;;1.17;100.00
61908;BME280;47864;52.526;19.672;2023-02-19T03:26:11;100323.44;;;1.16;100.00
61908;BME280;47864;52.526;19.672;2023-02-19T03:28:14;100320.84;;;1.16;100.00
61908;BME280;47864;52.526;19.672;2023-02-19T03:30:23;100312.41;;;1.25;100.00
61908;BME280;47864;52.526;19.672;2023-02-19T03:32:36;100287.78;;;1.02;100.00
61908;BME280;47864;52.526;19.672;2023-02-19T03:34:45;100321.31;;;1.23;100.00
61908;BME280;47864;52.526;19.672;2023-02-19T03:36:57;100313.72;;;1.05;100.00
61908;BME280;47864;52.526;19.672;2023-02-19T03:39:04;100308.31;;;0.94;100.00
61908;BME280;47864;52.526;19.672;2023-02-19T03:43:51;100328.94;;;1.26;100.00
61908;BME280;47864;52.526;19.672;2023-02-19T03:46:03;100326.41;;;1.24;100.00
61908;BME280;47864;52.526;19.672;2023-02-19T03:48:28;100310.22;;;1.19;100.00
61908;BME280;47864;52.526;19.672;2023-02-19T03:52:40;100319.06;;;1.17;100.00
61908;BME280;47864;52.526;19.672;2023-02-19T04:01:59;100306.94;;;1.15;100.00
61908;BME280;47864;52.526;19.672;2023-02-19T04:04:11;100309.47;;;1.17;100.00
61908;BME280;47864;52.526;19.672;2023-02-19T04:06:19;100294.94;;;1.13;100.00
61908;BME280;47864;52.526;19.672;2023-02-19T04:08:23;100311.69;;;1.23;100.00
61908;BME280;47864;52.526;19.672;2023-02-19T04:10:27;100306.66;;;1.20;100.00
61908;BME280;47864;52.526;19.672;2023-02-19T04:12:29;100297.06;;;1.21;100.00
61908;BME280;47864;52.526;19.672;2023-02-19T04:14:48;100296.56;;;1.28;100.00
61908;BME280;47864;52.526;19.672;2023-02-19T04:16:55;100294.78;;;1.29;100.00
61908;BME280;47864;52.526;19.672;2023-02-19T04:19:04;100319.25;;;1.40;100.00
61908;BME280;47864;52.526;19.672;2023-02-19T04:21:08;100318.53;;;1.38;100.00
61908;BME280;47864;52.526;19.672;2023-02-19T04:23:12;100298.41;;;1.26;100.00
61908;BME280;47864;52.526;19.672;2023-02-19T04:25:14;100311.06;;;1.32;100.00
61908;BME280;47864;52.526;19.672;2023-02-19T04:27:16;100300.88;;;1.42;100.00
61908;BME280;47864;52.526;19.672;2023-02-19T04:29:18;100288.38;;;1.20;100.00
61908;BME280;47864;52.526;19.672;2023-02-19T04:31:20;100313.41;;;1.37;100.00
61908;BME280;47864;52.526;19.672;2023-02-19T04:33:22;100300.25;;;1.38;100.00
61908;BME280;47864;52.526;19.672;2023-02-19T04:35:23;100294.28;;;1.36;100.00
61908;BME280;47864;52.526;19.672;2023-02-19T04:37:25;100294.19;;;1.38;100.00
61908;BME280;47864;52.526;19.672;2023-02-19T04:39:26;100299.94;;;1.43;100.00
61908;BME280;47864;52.526;19.672;2023-02-19T04:41:28;100293.25;;;1.39;100.00
61908;BME280;47864;52.526;19.672;2023-02-19T04:43:29;100295.88;;;1.39;100.00
61908;BME280;47864;52.526;19.672;2023-02-19T04:45:31;100275.22;;;1.22;100.00
61908;BME280;47864;52.526;19.672;2023-02-19T04:47:32;100298.56;;;1.37;100.00
61908;BME280;47864;52.526;19.672;2023-02-19T04:49:34;100297.41;;;1.41;100.00
61908;BME280;47864;52.526;19.672;2023-02-19T04:51:36;100297.88;;;1.48;100.00
61908;BME280;47864;52.526;19.672;2023-02-19T04:53:37;100292.09;;;1.43;100.00
61908;BME280;47864;52.526;19.672;2023-02-19T04:55:38;100290.81;;;1.36;100.00
61908;BME280;47864;52.526;19.672;2023-02-19T04:57:40;100295.38;;;1.46;100.00
61908;BME280;47864;52.526;19.672;2023-02-19T04:59:42;100276.00;;;1.36;100.00
61908;BME280;47864;52.526;19.672;2023-02-19T05:01:43;100291.91;;;1.46;100.00
61908;BME280;47864;52.526;19.672;2023-02-19T05:03:45;100287.31;;;1.49;100.00
61908;BME280;47864;52.526;19.672;2023-02-19T05:05:46;100290.03;;;1.48;100.00
61908;BME280;47864;52.526;19.672;2023-02-19T05:07:48;100292.00;;;1.44;100.00
61908;BME280;47864;52.526;19.672;2023-02-19T05:09:49;100272.63;;;1.34;100.00
61908;BME280;47864;52.526;19.672;2023-02-19T05:11:51;100277.44;;;1.40;100.00
61908;BME280;47864;52.526;19.672;2023-02-19T05:13:54;100268.47;;;1.32;100.00
61908;BME280;47864;52.526;19.672;2023-02-19T05:15:58;100285.63;;;1.48;100.00
61908;BME280;47864;52.526;19.672;2023-02-19T05:17:59;100267.41;;;1.34;100.00
61908;BME280;47864;52.526;19.672;2023-02-19T05:20:01;100274.22;;;1.37;100.00
61908;BME280;47864;52.526;19.672;2023-02-19T05:22:02;100284.81;;;1.48;100.00
61908;BME280;47864;52.526;19.672;2023-02-19T05:24:04;100291.84;;;1.60;100.00
61908;BME280;47864;52.526;19.672;2023-02-19T05:26:12;100280.63;;;1.45;100.00
61908;BME280;47864;52.526;19.672;2023-02-19T05:28:14;100291.94;;;1.59;100.00
61908;BME280;47864;52.526;19.672;2023-02-19T05:30:15;100295.78;;;1.53;100.00
61908;BME280;47864;52.526;19.672;2023-02-19T05:32:17;100277.66;;;1.37;100.00
61908;BME280;47864;52.526;19.672;2023-02-19T05:34:19;100273.03;;;1.28;100.00
61908;BME280;47864;52.526;19.672;2023-02-19T05:36:21;100282.06;;;1.37;100.00
61908;BME280;47864;52.526;19.672;2023-02-19T05:38:23;100289.91;;;1.37;100.00
61908;BME280;47864;52.526;19.672;2023-02-19T05:40:25;100294.63;;;1.44;100.00
61908;BME280;47864;52.526;19.672;2023-02-19T05:42:26;100295.03;;;1.51;100.00
61908;BME280;47864;52.526;19.672;2023-02-19T05:44:28;100294.44;;;1.47;100.00
61908;BME280;47864;52.526;19.672;2023-02-19T05:46:29;100296.91;;;1.49;100.00
61908;BME280;47864;52.526;19.672;2023-02-19T05:48:31;100302.78;;;1.52;100.00
61908;BME280;47864;52.526;19.672;2023-02-19T05:50:35;100303.53;;;1.55;100.00
61908;BME280;47864;52.526;19.672;2023-02-19T05:52:39;100304.47;;;1.53;100.00
61908;BME280;47864;52.526;19.672;2023-02-19T05:54:41;100312.81;;;1.46;100.00
61908;BME280;47864;52.526;19.672;2023-02-19T05:56:43;100319.72;;;1.47;100.00
61908;BME280;47864;52.526;19.672;2023-02-19T05:58:44;100301.28;;;1.36;100.00
61908;BME280;47864;52.526;19.672;2023-02-19T06:00:46;100286.44;;;1.36;100.00
61908;BME280;47864;52.526;19.672;2023-02-19T06:02:47;100311.38;;;1.55;100.00
61908;BME280;47864;52.526;19.672;2023-02-19T06:04:49;100314.09;;;1.53;100.00
61908;BME280;47864;52.526;19.672;2023-02-19T06:06:50;100305.31;;;1.54;100.00
61908;BME280;47864;52.526;19.672;2023-02-19T06:08:52;100309.94;;;1.63;100.00
61908;BME280;47864;52.526;19.672;2023-02-19T06:10:54;100307.09;;;1.66;100.00
61908;BME280;47864;52.526;19.672;2023-02-19T06:12:55;100293.91;;;1.55;100.00
61908;BME280;47864;52.526;19.672;2023-02-19T06:14:57;100275.06;;;1.50;100.00
61908;BME280;47864;52.526;19.672;2023-02-19T06:16:58;100284.91;;;1.59;100.00
61908;BME280;47864;52.526;19.672;2023-02-19T06:19:03;100280.44;;;1.61;100.00
61908;BME280;47864;52.526;19.672;2023-02-19T06:21:07;100307.34;;;1.76;100.00
61908;BME280;47864;52.526;19.672;2023-02-19T06:23:09;100304.72;;;1.76;100.00
61908;BME280;47864;52.526;19.672;2023-02-19T06:25:11;100314.16;;;1.78;100.00
61908;BME280;47864;52.526;19.672;2023-02-19T06:27:12;100308.69;;;1.81;100.00
61908;BME280;47864;52.526;19.672;2023-02-19T06:29:15;100310.81;;;1.89;100.00
61908;BME280;47864;52.526;19.672;2023-02-19T06:31:18;100307.97;;;1.79;100.00
61908;BME280;47864;52.526;19.672;2023-02-19T06:33:20;100318.94;;;1.72;100.00
61908;BME280;47864;52.526;19.672;2023-02-19T06:35:22;100315.81;;;1.79;100.00
61908;BME280;47864;52.526;19.672;2023-02-19T06:37:23;100326.19;;;1.81;100.00
61908;BME280;47864;52.526;19.672;2023-02-19T06:39:25;100330.56;;;1.80;100.00
61908;BME280;47864;52.526;19.672;2023-02-19T06:41:27;100336.13;;;1.88;100.00
61908;BME280;47864;52.526;19.672;2023-02-19T06:43:30;100334.13;;;1.92;100.00
61908;BME280;47864;52.526;19.672;2023-02-19T06:45:31;100339.16;;;1.95;100.00
61908;BME280;47864;52.526;19.672;2023-02-19T06:47:33;100347.03;;;1.95;100.00
61908;BME280;47864;52.526;19.672;2023-02-19T06:49:35;100335.16;;;1.89;100.00
61908;BME280;47864;52.526;19.672;2023-02-19T06:51:36;100338.75;;;1.88;100.00
61908;BME280;47864;52.526;19.672;2023-02-19T06:53:38;100330.50;;;1.95;100.00
61908;BME280;47864;52.526;19.672;2023-02-19T06:55:39;100322.22;;;2.01;100.00
61908;BME280;47864;52.526;19.672;2023-02-19T06:57:41;100346.22;;;2.20;100.00
61908;BME280;47864;52.526;19.672;2023-02-19T06:59:42;100330.38;;;2.09;100.00
61908;BME280;47864;52.526;19.672;2023-02-19T07:01:44;100342.13;;;2.16;100.00
61908;BME280;47864;52.526;19.672;2023-02-19T07:03:46;100349.34;;;2.25;100.00
61908;BME280;47864;52.526;19.672;2023-02-19T07:05:48;100338.56;;;2.17;100.00
61908;BME280;47864;52.526;19.672;2023-02-19T07:07:50;100355.59;;;2.22;100.00
61908;BME280;47864;52.526;19.672;2023-02-19T07:09:51;100355.31;;;2.27;100.00
61908;BME280;47864;52.526;19.672;2023-02-19T07:11:53;100342.44;;;2.11;100.00
61908;BME280;47864;52.526;19.672;2023-02-19T07:13:57;100341.72;;;2.22;100.00
61908;BME280;47864;52.526;19.672;2023-02-19T07:16:01;100363.25;;;2.25;100.00
61908;BME280;47864;52.526;19.672;2023-02-19T07:18:03;100362.66;;;2.22;100.00
61908;BME280;47864;52.526;19.672;2023-02-19T07:20:05;100365.88;;;2.25;100.00
61908;BME280;47864;52.526;19.672;2023-02-19T07:22:06;100371.03;;;2.27;100.00
61908;BME280;47864;52.526;19.672;2023-02-19T07:24:09;100374.59;;;2.39;100.00
61908;BME280;47864;52.526;19.672;2023-02-19T07:26:11;100374.78;;;2.36;100.00
61908;BME280;47864;52.526;19.672;2023-02-19T07:28:13;100354.91;;;2.20;100.00
61908;BME280;47864;52.526;19.672;2023-02-19T07:30:15;100375.84;;;2.46;100.00
61908;BME280;47864;52.526;19.672;2023-02-19T07:32:16;100376.78;;;2.57;100.00
61908;BME280;47864;52.526;19.672;2023-02-19T07:34:18;100378.44;;;2.58;100.00
61908;BME280;47864;52.526;19.672;2023-02-19T07:36:21;100374.06;;;2.72;100.00
61908;BME280;47864;52.526;19.672;2023-02-19T07:38:23;100368.38;;;2.65;100.00
61908;BME280;47864;52.526;19.672;2023-02-19T07:40:25;100371.41;;;2.84;100.00
61908;BME280;47864;52.526;19.672;2023-02-19T07:42:27;100352.47;;;2.55;100.00
61908;BME280;47864;52.526;19.672;2023-02-19T07:44:28;100374.25;;;2.68;100.00
61908;BME280;47864;52.526;19.672;2023-02-19T07:46:30;100376.66;;;2.84;100.00
61908;BME280;47864;52.526;19.672;2023-02-19T07:48:33;100377.69;;;2.82;100.00
61908;BME280;47864;52.526;19.672;2023-02-19T07:50:34;100381.84;;;2.97;100.00
61908;BME280;47864;52.526;19.672;2023-02-19T07:52:36;100370.97;;;3.03;100.00
61908;BME280;47864;52.526;19.672;2023-02-19T07:54:38;100357.03;;;2.90;100.00
61908;BME280;47864;52.526;19.672;2023-02-19T07:56:39;100373.00;;;2.87;100.00
61908;BME280;47864;52.526;19.672;2023-02-19T07:58:41;100360.19;;;2.95;100.00
61908;BME280;47864;52.526;19.672;2023-02-19T08:00:42;100355.25;;;3.03;100.00
61908;BME280;47864;52.526;19.672;2023-02-19T08:02:44;100382.16;;;3.05;100.00
61908;BME280;47864;52.526;19.672;2023-02-19T08:04:46;100360.19;;;2.95;100.00
61908;BME280;47864;52.526;19.672;2023-02-19T08:06:48;100385.31;;;3.10;100.00
61908;BME280;47864;52.526;19.672;2023-02-19T08:08:49;100380.38;;;3.05;100.00
61908;BME280;47864;52.526;19.672;2023-02-19T08:10:51;100384.78;;;3.05;100.00
61908;BME280;47864;52.526;19.672;2023-02-19T08:12:59;100382.44;;;3.13;100.00
61908;BME280;47864;52.526;19.672;2023-02-19T08:15:01;100371.91;;;2.89;100.00
61908;BME280;47864;52.526;19.672;2023-02-19T08:17:03;100375.28;;;2.91;100.00
61908;BME280;47864;52.526;19.672;2023-02-19T08:19:04;100387.19;;;3.08;100.00
61908;BME280;47864;52.526;19.672;2023-02-19T08:21:06;100382.81;;;2.96;100.00
61908;BME280;47864;52.526;19.672;2023-02-19T08:23:08;100381.09;;;3.08;100.00
61908;BME280;47864;52.526;19.672;2023-02-19T08:25:10;100375.25;;;3.04;100.00
61908;BME280;47864;52.526;19.672;2023-02-19T08:27:11;100390.41;;;3.48;100.00
61908;BME280;47864;52.526;19.672;2023-02-19T08:29:12;100372.41;;;3.07;100.00
61908;BME280;47864;52.526;19.672;2023-02-19T08:31:14;100376.53;;;3.35;100.00
61908;BME280;47864;52.526;19.672;2023-02-19T08:33:19;100364.72;;;3.53;100.00
61908;BME280;47864;52.526;19.672;2023-02-19T08:35:21;100364.19;;;3.72;100.00
61908;BME280;47864;52.526;19.672;2023-02-19T08:37:23;100382.59;;;3.83;100.00
61908;BME280;47864;52.526;19.672;2023-02-19T08:39:24;100381.19;;;3.90;100.00
61908;BME280;47864;52.526;19.672;2023-02-19T08:41:25;100363.03;;;3.87;100.00
61908;BME280;47864;52.526;19.672;2023-02-19T08:43:27;100380.44;;;3.77;100.00
61908;BME280;47864;52.526;19.672;2023-02-19T08:45:29;100380.66;;;3.74;100.00
61908;BME280;47864;52.526;19.672;2023-02-19T08:47:31;100385.69;;;3.77;100.00
61908;BME280;47864;52.526;19.672;2023-02-19T08:49:34;100383.78;;;4.14;100.00
61908;BME280;47864;52.526;19.672;2023-02-19T08:51:36;100392.41;;;4.38;100.00
61908;BME280;47864;52.526;19.672;2023-02-19T08:53:39;100381.78;;;4.17;100.00
61908;BME280;47864;52.526;19.672;2023-02-19T08:55:41;100367.28;;;4.01;100.00
61908;BME280;47864;52.526;19.672;2023-02-19T08:57:42;100386.97;;;4.06;100.00
61908;BME280;47864;52.526;19.672;2023-02-19T08:59:44;100370.22;;;3.85;100.00
61908;BME280;47864;52.526;19.672;2023-02-19T09:01:45;100387.47;;;3.76;100.00
61908;BME280;47864;52.526;19.672;2023-02-19T09:03:47;100395.78;;;3.70;100.00
61908;BME280;47864;52.526;19.672;2023-02-19T09:05:49;100378.81;;;3.63;100.00
61908;BME280;47864;52.526;19.672;2023-02-19T09:07:50;100403.66;;;3.94;100.00
61908;BME280;47864;52.526;19.672;2023-02-19T09:09:52;100395.53;;;3.97;100.00
61908;BME280;47864;52.526;19.672;2023-02-19T09:11:54;100404.22;;;3.87;100.00
61908;BME280;47864;52.526;19.672;2023-02-19T09:13:55;100353.53;;;3.38;100.00
61908;BME280;47864;52.526;19.672;2023-02-19T09:15:57;100416.16;;;3.91;100.00
61908;BME280;47864;52.526;19.672;2023-02-19T09:17:59;100388.47;;;3.87;100.00
61908;BME280;47864;52.526;19.672;2023-02-19T09:20:00;100399.50;;;3.79;100.00
61908;BME280;47864;52.526;19.672;2023-02-19T09:22:03;100409.56;;;3.85;100.00
61908;BME280;47864;52.526;19.672;2023-02-19T09:24:07;100392.53;;;3.91;100.00
61908;BME280;47864;52.526;19.672;2023-02-19T09:26:09;100407.44;;;4.25;100.00
61908;BME280;47864;52.526;19.672;2023-02-19T09:28:10;100408.78;;;4.53;100.00
61908;BME280;47864;52.526;19.672;2023-02-19T09:30:12;100415.91;;;4.29;100.00
61908;BME280;47864;52.526;19.672;2023-02-19T09:32:14;100417.56;;;4.18;100.00
61908;BME280;47864;52.526;19.672;2023-02-19T09:34:16;100406.19;;;4.07;100.00
61908;BME280;47864;52.526;19.672;2023-02-19T09:36:18;100389.66;;;4.17;100.00
61908;BME280;47864;52.526;19.672;2023-02-19T09:38:19;100405.03;;;4.11;100.00
61908;BME280;47864;52.526;19.672;2023-02-19T09:40:21;100400.88;;;4.31;100.00
61908;BME280;47864;52.526;19.672;2023-02-19T09:42:26;100413.16;;;4.30;100.00
61908;BME280;47864;52.526;19.672;2023-02-19T09:44:43;100412.22;;;4.31;100.00
61908;BME280;47864;52.526;19.672;2023-02-19T09:46:50;100417.59;;;4.30;100.00
61908;BME280;47864;52.526;19.672;2023-02-19T09:48:56;100418.50;;;4.64;100.00
61908;BME280;47864;52.526;19.672;2023-02-19T09:51:00;100421.22;;;4.51;100.00
61908;BME280;47864;52.526;19.672;2023-02-19T09:53:04;100424.09;;;4.48;100.00
61908;BME280;47864;52.526;19.672;2023-02-19T09:55:30;100433.66;;;4.71;100.00
61908;BME280;47864;52.526;19.672;2023-02-19T09:57:35;100415.31;;;4.93;100.00
61908;BME280;47864;52.526;19.672;2023-02-19T09:59:41;100439.28;;;4.78;100.00
61908;BME280;47864;52.526;19.672;2023-02-19T10:01:46;100427.47;;;4.72;100.00
61908;BME280;47864;52.526;19.672;2023-02-19T10:03:49;100431.00;;;4.49;100.00
61908;BME280;47864;52.526;19.672;2023-02-19T10:05:52;100417.47;;;4.31;100.00
61908;BME280;47864;52.526;19.672;2023-02-19T10:07:54;100446.66;;;4.62;100.00
61908;BME280;47864;52.526;19.672;2023-02-19T10:10:15;100436.53;;;4.79;100.00
61908;BME280;47864;52.526;19.672;2023-02-19T10:12:27;100443.00;;;4.97;100.00
61908;BME280;47864;52.526;19.672;2023-02-19T10:14:42;100433.56;;;4.73;100.00
61908;BME280;47864;52.526;19.672;2023-02-19T10:16:47;100442.31;;;4.84;100.00
61908;BME280;47864;52.526;19.672;2023-02-19T10:18:49;100439.91;;;4.81;100.00
61908;BME280;47864;52.526;19.672;2023-02-19T10:20:51;100445.88;;;4.83;100.00
61908;BME280;47864;52.526;19.672;2023-02-19T10:23:01;100452.09;;;4.93;100.00
61908;BME280;47864;52.526;19.672;2023-02-19T10:25:03;100457.94;;;4.86;100.00
61908;BME280;47864;52.526;19.672;2023-02-19T10:27:10;100404.53;;;4.74;100.00
61908;BME280;47864;52.526;19.672;2023-02-19T10:29:12;100460.94;;;5.26;100.00
61908;BME280;47864;52.526;19.672;2023-02-19T10:31:21;100468.00;;;5.25;100.00
61908;BME280;47864;52.526;19.672;2023-02-19T10:33:24;100459.63;;;5.31;100.00
61908;BME280;47864;52.526;19.672;2023-02-19T10:35:26;100449.09;;;4.98;100.00
61908;BME280;47864;52.526;19.672;2023-02-19T10:37:28;100460.47;;;5.21;100.00
61908;BME280;47864;52.526;19.672;2023-02-19T10:39:38;100463.59;;;5.26;100.00
61908;BME280;47864;52.526;19.672;2023-02-19T10:41:42;100471.69;;;5.23;100.00
61908;BME280;47864;52.526;19.672;2023-02-19T10:43:51;100471.94;;;5.31;100.00
61908;BME280;47864;52.526;19.672;2023-02-19T10:45:53;100467.13;;;5.36;100.00
61908;BME280;47864;52.526;19.672;2023-02-19T10:47:55;100438.84;;;5.06;100.00
61908;BME280;47864;52.526;19.672;2023-02-19T10:49:58;100463.66;;;5.35;100.00
61908;BME280;47864;52.526;19.672;2023-02-19T10:52:33;100465.03;;;5.19;100.00
61908;BME280;47864;52.526;19.672;2023-02-19T10:54:35;100454.81;;;5.59;100.00
61908;BME280;47864;52.526;19.672;2023-02-19T10:56:37;100454.72;;;5.38;100.00
61908;BME280;47864;52.526;19.672;2023-02-19T10:58:39;100464.31;;;5.17;100.00
61908;BME280;47864;52.526;19.672;2023-02-19T11:00:40;100461.28;;;5.55;100.00
61908;BME280;47864;52.526;19.672;2023-02-19T11:02:43;100464.63;;;5.46;100.00